sensor_id;sensor_type;location;lat;lon;timestamp;P1;durP1;ratioP1;P2;durP2;ratioP2
27505;SDS011;14939;43.596;1.320;2022-11-02T00:00:59;9.25;;;2.47;;
27505;SDS011;14939;43.596;1.320;2022-11-02T00:03:36;10.25;;;2.53;;
27505;SDS011;14939;43.596;1.320;2022-11-02T00:06:02;9.60;;;2.58;;
27505;SDS011;14939;43.596;1.320;2022-11-02T00:08:28;11.05;;;2.25;;
27505;SDS011;14939;43.596;1.320;2022-11-02T00:10:53;8.45;;;2.47;;
27505;SDS011;14939;43.596;1.320;2022-11-02T00:13:19;12.18;;;2.40;;
27505;SDS011;14939;43.596;1.320;2022-11-02T00:15:44;9.90;;;2.33;;
27505;SDS011;14939;43.596;1.320;2022-11-02T00:18:11;8.27;;;2.47;;
27505;SDS011;14939;43.596;1.320;2022-11-02T00:20:38;11.30;;;2.30;;
27505;SDS011;14939;43.596;1.320;2022-11-02T00:23:07;7.85;;;2.25;;
27505;SDS011;14939;43.596;1.320;2022-11-02T00:25:45;6.70;;;1.90;;
27505;SDS011;14939;43.596;1.320;2022-11-02T00:28:12;8.98;;;2.20;;
27505;SDS011;14939;43.596;1.320;2022-11-02T00:30:38;6.30;;;2.20;;
27505;SDS011;14939;43.596;1.320;2022-11-02T00:33:04;8.55;;;2.15;;
27505;SDS011;14939;43.596;1.320;2022-11-02T00:35:30;8.70;;;2.20;;
27505;SDS011;14939;43.596;1.320;2022-11-02T00:37:57;8.02;;;1.90;;
27505;SDS011;14939;43.596;1.320;2022-11-02T00:40:22;9.18;;;2.20;;
27505;SDS011;14939;43.596;1.320;2022-11-02T00:42:48;11.85;;;2.33;;
27505;SDS011;14939;43.596;1.320;2022-11-02T00:45:14;9.75;;;2.15;;
27505;SDS011;14939;43.596;1.320;2022-11-02T00:47:39;8.00;;;1.90;;
27505;SDS011;14939;43.596;1.320;2022-11-02T00:50:05;6.30;;;2.05;;
27505;SDS011;14939;43.596;1.320;2022-11-02T00:52:32;12.75;;;2.30;;
27505;SDS011;14939;43.596;1.320;2022-11-02T00:54:57;6.78;;;2.10;;
27505;SDS011;14939;43.596;1.320;2022-11-02T00:57:23;8.38;;;2.38;;
27505;SDS011;14939;43.596;1.320;2022-11-02T00:59:48;7.60;;;2.10;;
27505;SDS011;14939;43.596;1.320;2022-11-02T01:02:14;10.40;;;2.50;;
27505;SDS011;14939;43.596;1.320;2022-11-02T01:04:40;10.07;;;2.25;;
27505;SDS011;14939;43.596;1.320;2022-11-02T01:07:06;15.68;;;3.00;;
27505;SDS011;14939;43.596;1.320;2022-11-02T01:09:31;12.88;;;3.03;;
27505;SDS011;14939;43.596;1.320;2022-11-02T01:11:58;14.45;;;2.72;;
27505;SDS011;14939;43.596;1.320;2022-11-02T01:14:24;14.52;;;2.60;;
27505;SDS011;14939;43.596;1.320;2022-11-02T01:16:50;9.48;;;2.15;;
27505;SDS011;14939;43.596;1.320;2022-11-02T01:19:16;10.13;;;2.72;;
27505;SDS011;14939;43.596;1.320;2022-11-02T01:21:41;9.38;;;2.40;;
27505;SDS011;14939;43.596;1.320;2022-11-02T01:24:07;13.52;;;2.92;;
27505;SDS011;14939;43.596;1.320;2022-11-02T01:26:33;13.60;;;2.78;;
27505;SDS011;14939;43.596;1.320;2022-11-02T01:28:58;13.50;;;2.40;;
27505;SDS011;14939;43.596;1.320;2022-11-02T01:31:24;11.10;;;2.60;;
27505;SDS011;14939;43.596;1.320;2022-11-02T01:33:50;13.27;;;2.53;;
27505;SDS011;14939;43.596;1.320;2022-11-02T01:36:16;10.27;;;2.45;;
27505;SDS011;14939;43.596;1.320;2022-11-02T01:38:46;15.25;;;2.60;;
27505;SDS011;14939;43.596;1.320;2022-11-02T01:41:13;10.95;;;2.67;;
27505;SDS011;14939;43.596;1.320;2022-11-02T01:43:40;14.48;;;2.60;;
27505;SDS011;14939;43.596;1.320;2022-11-02T01:48:38;13.38;;;2.53;;
27505;SDS011;14939;43.596;1.320;2022-11-02T01:51:08;16.42;;;2.78;;
27505;SDS011;14939;43.596;1.320;2022-11-02T01:53:38;10.60;;;2.17;;
27505;SDS011;14939;43.596;1.320;2022-11-02T01:56:08;18.33;;;3.08;;
27505;SDS011;14939;43.596;1.320;2022-11-02T01:58:38;17.58;;;3.40;;
27505;SDS011;14939;43.596;1.320;2022-11-02T02:01:05;16.73;;;3.28;;
27505;SDS011;14939;43.596;1.320;2022-11-02T02:03:31;14.38;;;2.80;;
27505;SDS011;14939;43.596;1.320;2022-11-02T02:06:02;17.83;;;3.38;;
27505;SDS011;14939;43.596;1.320;2022-11-02T02:08:32;16.42;;;2.60;;
27505;SDS011;14939;43.596;1.320;2022-11-02T02:11:00;16.08;;;2.58;;
27505;SDS011;14939;43.596;1.320;2022-11-02T02:13:26;18.10;;;3.03;;
27505;SDS011;14939;43.596;1.320;2022-11-02T02:16:00;13.70;;;3.00;;
27505;SDS011;14939;43.596;1.320;2022-11-02T02:34:19;11.68;;;2.40;;
27505;SDS011;14939;43.596;1.320;2022-11-02T02:37:21;13.07;;;2.70;;
27505;SDS011;14939;43.596;1.320;2022-11-02T02:42:45;13.98;;;2.60;;
27505;SDS011;14939;43.596;1.320;2022-11-02T02:45:27;14.35;;;3.20;;
27505;SDS011;14939;43.596;1.320;2022-11-02T02:48:02;17.83;;;2.80;;
27505;SDS011;14939;43.596;1.320;2022-11-02T02:50:48;11.18;;;2.63;;
27505;SDS011;14939;43.596;1.320;2022-11-02T02:53:26;18.08;;;3.20;;
27505;SDS011;14939;43.596;1.320;2022-11-02T02:55:56;14.05;;;2.47;;
27505;SDS011;14939;43.596;1.320;2022-11-02T02:58:25;16.55;;;2.83;;
27505;SDS011;14939;43.596;1.320;2022-11-02T03:00:55;17.95;;;2.75;;
27505;SDS011;14939;43.596;1.320;2022-11-02T03:03:23;14.55;;;3.45;;
27505;SDS011;14939;43.596;1.320;2022-11-02T03:06:02;10.82;;;2.58;;
27505;SDS011;14939;43.596;1.320;2022-11-02T03:08:40;14.90;;;2.80;;
27505;SDS011;14939;43.596;1.320;2022-11-02T03:11:15;18.77;;;3.45;;
27505;SDS011;14939;43.596;1.320;2022-11-02T03:13:50;13.00;;;2.67;;
27505;SDS011;14939;43.596;1.320;2022-11-02T03:21:54;13.15;;;2.80;;
27505;SDS011;14939;43.596;1.320;2022-11-02T03:24:26;21.92;;;3.15;;
27505;SDS011;14939;43.596;1.320;2022-11-02T03:32:27;15.60;;;2.65;;
27505;SDS011;14939;43.596;1.320;2022-11-02T03:35:06;15.38;;;3.15;;
27505;SDS011;14939;43.596;1.320;2022-11-02T03:37:50;16.40;;;2.90;;
27505;SDS011;14939;43.596;1.320;2022-11-02T03:40:25;17.92;;;2.83;;
27505;SDS011;14939;43.596;1.320;2022-11-02T03:42:55;20.80;;;2.92;;
27505;SDS011;14939;43.596;1.320;2022-11-02T03:45:22;16.60;;;3.55;;
27505;SDS011;14939;43.596;1.320;2022-11-02T03:47:53;18.25;;;3.22;;
27505;SDS011;14939;43.596;1.320;2022-11-02T03:50:22;18.47;;;2.83;;
27505;SDS011;14939;43.596;1.320;2022-11-02T03:53:10;13.70;;;2.70;;
27505;SDS011;14939;43.596;1.320;2022-11-02T03:55:37;14.63;;;3.05;;
27505;SDS011;14939;43.596;1.320;2022-11-02T03:58:08;20.48;;;3.05;;
27505;SDS011;14939;43.596;1.320;2022-11-02T04:00:35;15.68;;;3.30;;
27505;SDS011;14939;43.596;1.320;2022-11-02T04:03:08;15.88;;;3.17;;
27505;SDS011;14939;43.596;1.320;2022-11-02T04:05:36;11.77;;;2.80;;
27505;SDS011;14939;43.596;1.320;2022-11-02T04:08:02;16.05;;;2.83;;
27505;SDS011;14939;43.596;1.320;2022-11-02T04:10:47;15.57;;;3.08;;
27505;SDS011;14939;43.596;1.320;2022-11-02T04:13:32;15.30;;;3.05;;
27505;SDS011;14939;43.596;1.320;2022-11-02T04:16:16;17.40;;;3.17;;
27505;SDS011;14939;43.596;1.320;2022-11-02T04:18:42;17.95;;;3.20;;
27505;SDS011;14939;43.596;1.320;2022-11-02T04:21:26;14.73;;;3.15;;
27505;SDS011;14939;43.596;1.320;2022-11-02T04:23:52;19.25;;;3.55;;
27505;SDS011;14939;43.596;1.320;2022-11-02T04:26:37;15.93;;;2.80;;
27505;SDS011;14939;43.596;1.320;2022-11-02T04:29:03;13.60;;;2.47;;
27505;SDS011;14939;43.596;1.320;2022-11-02T04:31:28;26.10;;;3.33;;
27505;SDS011;14939;43.596;1.320;2022-11-02T04:33:54;17.55;;;3.28;;
27505;SDS011;14939;43.596;1.320;2022-11-02T04:36:22;19.50;;;2.85;;
27505;SDS011;14939;43.596;1.320;2022-11-02T04:38:48;14.23;;;3.00;;
27505;SDS011;14939;43.596;1.320;2022-11-02T04:41:14;16.17;;;3.00;;
27505;SDS011;14939;43.596;1.320;2022-11-02T04:44:00;23.70;;;3.60;;
27505;SDS011;14939;43.596;1.320;2022-11-02T04:46:27;17.17;;;2.67;;
27505;SDS011;14939;43.596;1.320;2022-11-02T04:48:54;17.42;;;3.03;;
27505;SDS011;14939;43.596;1.320;2022-11-02T04:51:20;16.55;;;2.90;;
27505;SDS011;14939;43.596;1.320;2022-11-02T04:53:47;15.30;;;2.80;;
27505;SDS011;14939;43.596;1.320;2022-11-02T04:56:13;18.80;;;2.90;;
27505;SDS011;14939;43.596;1.320;2022-11-02T04:58:39;17.63;;;3.03;;
27505;SDS011;14939;43.596;1.320;2022-11-02T05:01:10;15.40;;;3.00;;
27505;SDS011;14939;43.596;1.320;2022-11-02T05:03:40;18.00;;;3.40;;
27505;SDS011;14939;43.596;1.320;2022-11-02T05:06:06;22.33;;;3.10;;
27505;SDS011;14939;43.596;1.320;2022-11-02T05:08:34;13.25;;;3.15;;
27505;SDS011;14939;43.596;1.320;2022-11-02T05:11:00;16.05;;;2.97;;
27505;SDS011;14939;43.596;1.320;2022-11-02T05:13:26;16.38;;;3.10;;
27505;SDS011;14939;43.596;1.320;2022-11-02T05:15:55;16.30;;;2.83;;
27505;SDS011;14939;43.596;1.320;2022-11-02T05:18:22;12.60;;;3.05;;
27505;SDS011;14939;43.596;1.320;2022-11-02T05:20:49;14.70;;;2.83;;
27505;SDS011;14939;43.596;1.320;2022-11-02T05:23:16;16.98;;;3.08;;
27505;SDS011;14939;43.596;1.320;2022-11-02T05:25:42;16.20;;;3.05;;
27505;SDS011;14939;43.596;1.320;2022-11-02T05:28:07;14.75;;;2.80;;
27505;SDS011;14939;43.596;1.320;2022-11-02T05:30:33;17.67;;;3.05;;
27505;SDS011;14939;43.596;1.320;2022-11-02T05:32:59;16.40;;;2.70;;
27505;SDS011;14939;43.596;1.320;2022-11-02T05:35:26;13.98;;;3.03;;
27505;SDS011;14939;43.596;1.320;2022-11-02T05:37:53;16.60;;;3.88;;
27505;SDS011;14939;43.596;1.320;2022-11-02T05:40:19;19.52;;;3.17;;
27505;SDS011;14939;43.596;1.320;2022-11-02T05:42:45;18.50;;;2.90;;
27505;SDS011;14939;43.596;1.320;2022-11-02T05:45:10;15.35;;;2.78;;
27505;SDS011;14939;43.596;1.320;2022-11-02T05:47:36;17.40;;;2.75;;
27505;SDS011;14939;43.596;1.320;2022-11-02T05:50:02;17.40;;;3.28;;
27505;SDS011;14939;43.596;1.320;2022-11-02T05:52:27;15.20;;;2.55;;
27505;SDS011;14939;43.596;1.320;2022-11-02T05:54:53;16.60;;;2.85;;
27505;SDS011;14939;43.596;1.320;2022-11-02T05:57:19;13.85;;;2.92;;
27505;SDS011;14939;43.596;1.320;2022-11-02T05:59:45;18.52;;;3.25;;
27505;SDS011;14939;43.596;1.320;2022-11-02T06:02:10;12.18;;;3.40;;
27505;SDS011;14939;43.596;1.320;2022-11-02T06:04:36;25.02;;;3.78;;
27505;SDS011;14939;43.596;1.320;2022-11-02T06:07:02;20.75;;;3.90;;
27505;SDS011;14939;43.596;1.320;2022-11-02T06:09:28;20.80;;;4.65;;
27505;SDS011;14939;43.596;1.320;2022-11-02T06:11:54;16.08;;;3.53;;
27505;SDS011;14939;43.596;1.320;2022-11-02T06:14:20;15.25;;;3.03;;
27505;SDS011;14939;43.596;1.320;2022-11-02T06:16:46;21.02;;;3.55;;
27505;SDS011;14939;43.596;1.320;2022-11-02T06:19:11;21.23;;;4.18;;
27505;SDS011;14939;43.596;1.320;2022-11-02T06:21:37;19.77;;;3.40;;
27505;SDS011;14939;43.596;1.320;2022-11-02T06:24:03;16.08;;;3.05;;
27505;SDS011;14939;43.596;1.320;2022-11-02T06:26:28;17.33;;;2.83;;
27505;SDS011;14939;43.596;1.320;2022-11-02T06:28:54;17.98;;;2.90;;
27505;SDS011;14939;43.596;1.320;2022-11-02T06:31:20;14.63;;;3.17;;
27505;SDS011;14939;43.596;1.320;2022-11-02T06:33:45;15.38;;;3.22;;
27505;SDS011;14939;43.596;1.320;2022-11-02T06:36:11;20.77;;;3.22;;
27505;SDS011;14939;43.596;1.320;2022-11-02T06:38:37;15.15;;;3.25;;
27505;SDS011;14939;43.596;1.320;2022-11-02T06:41:02;18.00;;;2.92;;
27505;SDS011;14939;43.596;1.320;2022-11-02T06:43:30;21.02;;;3.38;;
27505;SDS011;14939;43.596;1.320;2022-11-02T06:45:56;18.60;;;3.70;;
27505;SDS011;14939;43.596;1.320;2022-11-02T06:48:23;15.70;;;3.35;;
27505;SDS011;14939;43.596;1.320;2022-11-02T06:50:50;17.80;;;2.92;;
27505;SDS011;14939;43.596;1.320;2022-11-02T06:53:16;14.02;;;2.88;;
27505;SDS011;14939;43.596;1.320;2022-11-02T06:55:42;19.00;;;3.15;;
27505;SDS011;14939;43.596;1.320;2022-11-02T06:58:08;18.10;;;3.40;;
27505;SDS011;14939;43.596;1.320;2022-11-02T07:00:34;17.73;;;3.45;;
27505;SDS011;14939;43.596;1.320;2022-11-02T07:03:04;16.05;;;3.38;;
27505;SDS011;14939;43.596;1.320;2022-11-02T07:05:31;17.27;;;3.63;;
27505;SDS011;14939;43.596;1.320;2022-11-02T07:07:58;17.83;;;3.90;;
27505;SDS011;14939;43.596;1.320;2022-11-02T07:10:24;20.90;;;4.78;;
27505;SDS011;14939;43.596;1.320;2022-11-02T07:12:51;21.25;;;4.22;;
27505;SDS011;14939;43.596;1.320;2022-11-02T07:15:18;13.90;;;3.72;;
27505;SDS011;14939;43.596;1.320;2022-11-02T07:17:48;17.13;;;3.63;;
27505;SDS011;14939;43.596;1.320;2022-11-02T07:20:15;16.20;;;3.78;;
27505;SDS011;14939;43.596;1.320;2022-11-02T07:22:41;18.10;;;4.00;;
27505;SDS011;14939;43.596;1.320;2022-11-02T07:25:07;23.00;;;5.00;;
27505;SDS011;14939;43.596;1.320;2022-11-02T07:27:38;19.80;;;4.45;;
27505;SDS011;14939;43.596;1.320;2022-11-02T07:30:05;15.52;;;4.03;;
27505;SDS011;14939;43.596;1.320;2022-11-02T07:32:37;17.45;;;4.00;;
27505;SDS011;14939;43.596;1.320;2022-11-02T07:37:30;22.13;;;3.70;;
27505;SDS011;14939;43.596;1.320;2022-11-02T07:39:56;21.27;;;3.83;;
27505;SDS011;14939;43.596;1.320;2022-11-02T07:42:22;20.45;;;3.60;;
27505;SDS011;14939;43.596;1.320;2022-11-02T07:44:47;21.05;;;3.35;;
27505;SDS011;14939;43.596;1.320;2022-11-02T07:47:13;19.25;;;3.78;;
27505;SDS011;14939;43.596;1.320;2022-11-02T07:49:39;22.45;;;4.15;;
27505;SDS011;14939;43.596;1.320;2022-11-02T07:52:04;17.35;;;3.40;;
27505;SDS011;14939;43.596;1.320;2022-11-02T07:54:30;17.48;;;3.22;;
27505;SDS011;14939;43.596;1.320;2022-11-02T07:56:55;20.25;;;3.65;;
27505;SDS011;14939;43.596;1.320;2022-11-02T07:59:21;15.05;;;3.45;;
27505;SDS011;14939;43.596;1.320;2022-11-02T08:01:47;16.13;;;3.38;;
27505;SDS011;14939;43.596;1.320;2022-11-02T08:04:12;18.17;;;3.15;;
27505;SDS011;14939;43.596;1.320;2022-11-02T08:06:38;16.02;;;3.13;;
27505;SDS011;14939;43.596;1.320;2022-11-02T08:09:04;16.00;;;3.78;;
27505;SDS011;14939;43.596;1.320;2022-11-02T08:11:30;16.08;;;3.30;;
27505;SDS011;14939;43.596;1.320;2022-11-02T08:13:55;19.98;;;3.60;;
27505;SDS011;14939;43.596;1.320;2022-11-02T08:16:21;20.77;;;3.22;;
27505;SDS011;14939;43.596;1.320;2022-11-02T08:18:47;20.83;;;3.38;;
27505;SDS011;14939;43.596;1.320;2022-11-02T08:21:13;17.75;;;2.92;;
27505;SDS011;14939;43.596;1.320;2022-11-02T08:23:38;17.85;;;3.17;;
27505;SDS011;14939;43.596;1.320;2022-11-02T08:26:04;16.30;;;2.63;;
27505;SDS011;14939;43.596;1.320;2022-11-02T08:28:30;20.48;;;3.20;;
27505;SDS011;14939;43.596;1.320;2022-11-02T08:30:59;16.38;;;3.38;;
27505;SDS011;14939;43.596;1.320;2022-11-02T08:33:25;17.42;;;3.50;;
27505;SDS011;14939;43.596;1.320;2022-11-02T08:35:51;16.75;;;2.95;;
27505;SDS011;14939;43.596;1.320;2022-11-02T08:38:17;19.00;;;3.30;;
27505;SDS011;14939;43.596;1.320;2022-11-02T08:40:46;14.55;;;2.97;;
27505;SDS011;14939;43.596;1.320;2022-11-02T08:43:13;15.18;;;3.20;;
27505;SDS011;14939;43.596;1.320;2022-11-02T08:45:40;14.77;;;3.05;;
27505;SDS011;14939;43.596;1.320;2022-11-02T08:48:07;12.40;;;2.83;;
27505;SDS011;14939;43.596;1.320;2022-11-02T08:50:33;17.70;;;3.38;;
27505;SDS011;14939;43.596;1.320;2022-11-02T08:52:59;15.70;;;3.38;;
27505;SDS011;14939;43.596;1.320;2022-11-02T08:55:25;17.13;;;2.83;;
27505;SDS011;14939;43.596;1.320;2022-11-02T08:57:52;13.40;;;2.85;;
27505;SDS011;14939;43.596;1.320;2022-11-02T09:00:23;17.63;;;3.20;;
27505;SDS011;14939;43.596;1.320;2022-11-02T09:03:03;17.25;;;2.83;;
27505;SDS011;14939;43.596;1.320;2022-11-02T09:05:35;16.65;;;2.47;;
27505;SDS011;14939;43.596;1.320;2022-11-02T09:08:03;12.93;;;2.58;;
27505;SDS011;14939;43.596;1.320;2022-11-02T09:10:32;13.07;;;2.80;;
27505;SDS011;14939;43.596;1.320;2022-11-02T09:12:59;16.50;;;3.00;;
27505;SDS011;14939;43.596;1.320;2022-11-02T09:15:26;18.92;;;2.92;;
27505;SDS011;14939;43.596;1.320;2022-11-02T09:17:52;22.50;;;3.08;;
27505;SDS011;14939;43.596;1.320;2022-11-02T09:20:18;20.73;;;3.47;;
27505;SDS011;14939;43.596;1.320;2022-11-02T09:22:44;12.95;;;2.88;;
27505;SDS011;14939;43.596;1.320;2022-11-02T09:25:10;12.85;;;2.88;;
27505;SDS011;14939;43.596;1.320;2022-11-02T09:27:37;12.30;;;2.50;;
27505;SDS011;14939;43.596;1.320;2022-11-02T09:30:03;21.42;;;3.80;;
27505;SDS011;14939;43.596;1.320;2022-11-02T09:32:30;15.25;;;3.10;;
27505;SDS011;14939;43.596;1.320;2022-11-02T09:35:00;12.85;;;2.45;;
27505;SDS011;14939;43.596;1.320;2022-11-02T09:39:55;10.57;;;2.58;;
27505;SDS011;14939;43.596;1.320;2022-11-02T09:47:38;15.43;;;2.45;;
27505;SDS011;14939;43.596;1.320;2022-11-02T09:50:11;16.92;;;2.75;;
27505;SDS011;14939;43.596;1.320;2022-11-02T09:52:41;20.48;;;3.67;;
27505;SDS011;14939;43.596;1.320;2022-11-02T09:55:11;14.73;;;2.95;;
27505;SDS011;14939;43.596;1.320;2022-11-02T09:57:46;11.63;;;2.55;;
27505;SDS011;14939;43.596;1.320;2022-11-02T10:00:13;24.25;;;3.70;;
27505;SDS011;14939;43.596;1.320;2022-11-02T10:13:41;12.50;;;2.95;;
27505;SDS011;14939;43.596;1.320;2022-11-02T10:16:35;11.52;;;2.92;;
27505;SDS011;14939;43.596;1.320;2022-11-02T10:19:12;13.65;;;2.88;;
27505;SDS011;14939;43.596;1.320;2022-11-02T10:21:41;10.32;;;2.40;;
27505;SDS011;14939;43.596;1.320;2022-11-02T10:24:24;13.10;;;2.78;;
27505;SDS011;14939;43.596;1.320;2022-11-02T10:26:57;17.10;;;3.15;;
27505;SDS011;14939;43.596;1.320;2022-11-02T10:32:02;13.38;;;2.33;;
27505;SDS011;14939;43.596;1.320;2022-11-02T10:34:28;9.43;;;2.45;;
27505;SDS011;14939;43.596;1.320;2022-11-02T10:37:03;15.10;;;2.70;;
27505;SDS011;14939;43.596;1.320;2022-11-02T10:39:45;14.27;;;2.92;;
27505;SDS011;14939;43.596;1.320;2022-11-02T10:48:20;15.68;;;2.72;;
27505;SDS011;14939;43.596;1.320;2022-11-02T10:51:09;13.63;;;3.13;;
27505;SDS011;14939;43.596;1.320;2022-11-02T10:53:46;18.65;;;2.90;;
27505;SDS011;14939;43.596;1.320;2022-11-02T10:56:24;14.77;;;2.90;;
27505;SDS011;14939;43.596;1.320;2022-11-02T11:01:24;8.23;;;2.15;;
27505;SDS011;14939;43.596;1.320;2022-11-02T11:03:54;12.93;;;2.85;;
27505;SDS011;14939;43.596;1.320;2022-11-02T11:06:23;14.23;;;2.78;;
27505;SDS011;14939;43.596;1.320;2022-11-02T11:08:52;10.43;;;2.72;;
27505;SDS011;14939;43.596;1.320;2022-11-02T11:11:29;20.65;;;2.92;;
27505;SDS011;14939;43.596;1.320;2022-11-02T11:16:47;11.40;;;2.95;;
27505;SDS011;14939;43.596;1.320;2022-11-02T11:21:51;11.13;;;2.70;;
27505;SDS011;14939;43.596;1.320;2022-11-02T11:24:21;13.38;;;3.13;;
27505;SDS011;14939;43.596;1.320;2022-11-02T11:29:38;8.20;;;2.50;;
27505;SDS011;14939;43.596;1.320;2022-11-02T11:32:11;10.43;;;2.53;;
27505;SDS011;14939;43.596;1.320;2022-11-02T11:34:44;11.55;;;2.67;;
27505;SDS011;14939;43.596;1.320;2022-11-02T11:37:17;11.88;;;2.47;;
27505;SDS011;14939;43.596;1.320;2022-11-02T11:39:44;11.27;;;2.70;;
27505;SDS011;14939;43.596;1.320;2022-11-02T11:42:21;12.70;;;2.42;;
27505;SDS011;14939;43.596;1.320;2022-11-02T11:44:54;11.57;;;2.15;;
27505;SDS011;14939;43.596;1.320;2022-11-02T11:47:31;9.82;;;2.72;;
27505;SDS011;14939;43.596;1.320;2022-11-02T11:50:09;7.88;;;1.92;;
27505;SDS011;14939;43.596;1.320;2022-11-02T11:52:40;8.45;;;1.90;;
27505;SDS011;14939;43.596;1.320;2022-11-02T11:55:24;101.88;;;5.55;;
27505;SDS011;14939;43.596;1.320;2022-11-02T12:00:38;9.50;;;1.70;;
27505;SDS011;14939;43.596;1.320;2022-11-02T12:03:08;7.18;;;1.83;;
27505;SDS011;14939;43.596;1.320;2022-11-02T12:05:48;7.28;;;1.83;;
27505;SDS011;14939;43.596;1.320;2022-11-02T12:08:35;7.07;;;1.67;;
27505;SDS011;14939;43.596;1.320;2022-11-02T12:11:17;11.63;;;2.00;;
27505;SDS011;14939;43.596;1.320;2022-11-02T12:14:54;8.02;;;2.28;;
27505;SDS011;14939;43.596;1.320;2022-11-02T12:17:02;8.23;;;1.67;;
27505;SDS011;14939;43.596;1.320;2022-11-02T12:27:38;7.35;;;1.60;;
27505;SDS011;14939;43.596;1.320;2022-11-02T12:38:08;8.32;;;1.92;;
27505;SDS011;14939;43.596;1.320;2022-11-02T12:41:03;5.80;;;1.88;;
27505;SDS011;14939;43.596;1.320;2022-11-02T12:54:24;6.38;;;2.28;;
27505;SDS011;14939;43.596;1.320;2022-11-02T12:56:58;5.72;;;1.60;;
27505;SDS011;14939;43.596;1.320;2022-11-02T12:59:25;5.38;;;1.80;;
27505;SDS011;14939;43.596;1.320;2022-11-02T13:07:38;7.45;;;1.30;;
27505;SDS011;14939;43.596;1.320;2022-11-02T13:10:16;8.43;;;1.60;;
27505;SDS011;14939;43.596;1.320;2022-11-02T13:12:50;4.63;;;1.30;;
27505;SDS011;14939;43.596;1.320;2022-11-02T13:15:19;6.85;;;1.58;;
27505;SDS011;14939;43.596;1.320;2022-11-02T13:17:49;5.40;;;1.85;;
27505;SDS011;14939;43.596;1.320;2022-11-02T13:20:41;6.55;;;1.98;;
27505;SDS011;14939;43.596;1.320;2022-11-02T13:23:14;6.25;;;1.75;;
27505;SDS011;14939;43.596;1.320;2022-11-02T13:25:56;4.97;;;1.43;;
27505;SDS011;14939;43.596;1.320;2022-11-02T13:31:03;6.18;;;1.80;;
27505;SDS011;14939;43.596;1.320;2022-11-02T13:33:40;4.68;;;1.67;;
27505;SDS011;14939;43.596;1.320;2022-11-02T13:36:10;5.50;;;1.38;;
27505;SDS011;14939;43.596;1.320;2022-11-02T13:49:53;4.05;;;1.20;;
27505;SDS011;14939;43.596;1.320;2022-11-02T13:52:26;5.25;;;1.60;;
27505;SDS011;14939;43.596;1.320;2022-11-02T13:55:06;4.15;;;1.30;;
27505;SDS011;14939;43.596;1.320;2022-11-02T13:57:35;5.13;;;1.23;;
27505;SDS011;14939;43.596;1.320;2022-11-02T14:00:09;3.92;;;1.27;;
27505;SDS011;14939;43.596;1.320;2022-11-02T14:05:45;3.20;;;1.40;;
27505;SDS011;14939;43.596;1.320;2022-11-02T14:08:23;5.10;;;1.40;;
27505;SDS011;14939;43.596;1.320;2022-11-02T14:27:40;3.30;;;1.30;;
27505;SDS011;14939;43.596;1.320;2022-11-02T14:29:49;8.18;;;1.60;;
27505;SDS011;14939;43.596;1.320;2022-11-02T14:40:38;2.45;;;1.20;;
27505;SDS011;14939;43.596;1.320;2022-11-02T14:48:52;5.07;;;1.30;;
27505;SDS011;14939;43.596;1.320;2022-11-02T14:51:23;6.20;;;1.80;;
27505;SDS011;14939;43.596;1.320;2022-11-02T14:53:54;7.20;;;1.45;;
27505;SDS011;14939;43.596;1.320;2022-11-02T14:56:22;2.97;;;1.27;;
27505;SDS011;14939;43.596;1.320;2022-11-02T14:58:53;5.28;;;1.50;;
27505;SDS011;14939;43.596;1.320;2022-11-02T15:01:21;4.15;;;1.38;;
27505;SDS011;14939;43.596;1.320;2022-11-02T15:03:47;8.25;;;1.42;;
27505;SDS011;14939;43.596;1.320;2022-11-02T15:06:24;5.65;;;1.20;;
27505;SDS011;14939;43.596;1.320;2022-11-02T15:16:59;5.35;;;1.23;;
27505;SDS011;14939;43.596;1.320;2022-11-02T15:25:11;3.00;;;1.20;;
27505;SDS011;14939;43.596;1.320;2022-11-02T15:28:11;4.00;;;1.20;;
27505;SDS011;14939;43.596;1.320;2022-11-02T15:30:42;4.25;;;1.20;;
27505;SDS011;14939;43.596;1.320;2022-11-02T15:33:36;5.15;;;1.65;;
27505;SDS011;14939;43.596;1.320;2022-11-02T15:36:04;6.00;;;1.60;;
27505;SDS011;14939;43.596;1.320;2022-11-02T15:38:32;3.88;;;1.67;;
27505;SDS011;14939;43.596;1.320;2022-11-02T15:49:36;5.20;;;1.27;;
27505;SDS011;14939;43.596;1.320;2022-11-02T15:52:46;4.13;;;1.55;;
27505;SDS011;14939;43.596;1.320;2022-11-02T15:55:42;5.68;;;1.35;;
27505;SDS011;14939;43.596;1.320;2022-11-02T15:58:18;5.50;;;1.50;;
27505;SDS011;14939;43.596;1.320;2022-11-02T16:03:57;5.60;;;1.60;;
27505;SDS011;14939;43.596;1.320;2022-11-02T16:12:00;8.73;;;1.98;;
27505;SDS011;14939;43.596;1.320;2022-11-02T16:14:36;9.32;;;2.22;;
27505;SDS011;14939;43.596;1.320;2022-11-02T16:17:03;6.43;;;1.60;;
27505;SDS011;14939;43.596;1.320;2022-11-02T16:19:29;5.53;;;1.50;;
27505;SDS011;14939;43.596;1.320;2022-11-02T16:21:54;7.35;;;1.90;;
27505;SDS011;14939;43.596;1.320;2022-11-02T16:24:20;8.35;;;1.40;;
27505;SDS011;14939;43.596;1.320;2022-11-02T16:26:46;5.07;;;1.70;;
27505;SDS011;14939;43.596;1.320;2022-11-02T16:29:21;3.55;;;1.42;;
27505;SDS011;14939;43.596;1.320;2022-11-02T16:32:00;8.43;;;2.05;;
27505;SDS011;14939;43.596;1.320;2022-11-02T16:34:29;9.70;;;1.70;;
27505;SDS011;14939;43.596;1.320;2022-11-02T16:36:56;4.65;;;1.90;;
27505;SDS011;14939;43.596;1.320;2022-11-02T16:39:31;6.50;;;2.08;;
27505;SDS011;14939;43.596;1.320;2022-11-02T16:42:02;6.20;;;2.03;;
27505;SDS011;14939;43.596;1.320;2022-11-02T16:44:33;3.92;;;1.75;;
27505;SDS011;14939;43.596;1.320;2022-11-02T16:49:31;3.95;;;1.40;;
27505;SDS011;14939;43.596;1.320;2022-11-02T16:51:59;7.35;;;2.40;;
27505;SDS011;14939;43.596;1.320;2022-11-02T16:54:38;5.70;;;1.70;;
27505;SDS011;14939;43.596;1.320;2022-11-02T16:57:09;5.32;;;2.00;;
27505;SDS011;14939;43.596;1.320;2022-11-02T17:02:23;6.10;;;1.95;;
27505;SDS011;14939;43.596;1.320;2022-11-02T17:04:55;5.90;;;2.15;;
27505;SDS011;14939;43.596;1.320;2022-11-02T17:07:23;7.43;;;2.08;;
27505;SDS011;14939;43.596;1.320;2022-11-02T17:09:57;5.78;;;2.40;;
27505;SDS011;14939;43.596;1.320;2022-11-02T17:12:29;6.00;;;2.25;;
27505;SDS011;14939;43.596;1.320;2022-11-02T17:14:57;7.00;;;1.90;;
27505;SDS011;14939;43.596;1.320;2022-11-02T17:20:33;4.20;;;1.90;;
27505;SDS011;14939;43.596;1.320;2022-11-02T17:25:18;5.95;;;2.00;;
27505;SDS011;14939;43.596;1.320;2022-11-02T17:32:56;8.73;;;2.60;;
27505;SDS011;14939;43.596;1.320;2022-11-02T17:35:23;8.35;;;2.33;;
27505;SDS011;14939;43.596;1.320;2022-11-02T17:37:49;18.38;;;2.60;;
27505;SDS011;14939;43.596;1.320;2022-11-02T17:40:14;18.38;;;2.85;;
27505;SDS011;14939;43.596;1.320;2022-11-02T17:42:40;11.85;;;2.67;;
27505;SDS011;14939;43.596;1.320;2022-11-02T17:45:34;7.70;;;2.30;;
27505;SDS011;14939;43.596;1.320;2022-11-02T17:48:04;8.77;;;2.28;;
27505;SDS011;14939;43.596;1.320;2022-11-02T17:50:32;11.23;;;2.05;;
27505;SDS011;14939;43.596;1.320;2022-11-02T17:52:59;10.10;;;2.90;;
27505;SDS011;14939;43.596;1.320;2022-11-02T17:55:27;6.82;;;2.20;;
27505;SDS011;14939;43.596;1.320;2022-11-02T17:57:55;8.52;;;2.30;;
27505;SDS011;14939;43.596;1.320;2022-11-02T18:00:21;5.13;;;2.40;;
27505;SDS011;14939;43.596;1.320;2022-11-02T18:02:55;14.77;;;2.53;;
27505;SDS011;14939;43.596;1.320;2022-11-02T18:05:26;14.73;;;2.80;;
27505;SDS011;14939;43.596;1.320;2022-11-02T18:07:59;7.32;;;2.30;;
27505;SDS011;14939;43.596;1.320;2022-11-02T18:10:30;5.72;;;2.47;;
27505;SDS011;14939;43.596;1.320;2022-11-02T18:12:57;6.78;;;2.40;;
27505;SDS011;14939;43.596;1.320;2022-11-02T18:15:24;9.35;;;2.25;;
27505;SDS011;14939;43.596;1.320;2022-11-02T18:17:51;6.03;;;2.60;;